Time;durP1;ratioP1;P1;durP2;ratioP2;P2;SDS_P1;SDS_P2;PMS_P1;PMS_P2;Temp;Humidity;BMP_temperature;BMP_pressure;BME280_temperature;BME280_humidity;BME280_pressure;Samples;Min_cycle;Max_cycle;Signal;HPM_P1;HPM_P2
2021/08/11 00:01:21;;;;;;;;;;;16.30;99.90;;;;;;8468837;27;19919;-92
2021/08/11 00:05:22;;;;;;;;;;;16.30;99.90;;;;;;8468932;27;19908;-92
2021/08/11 00:09:23;;;;;;;;;;;16.10;99.90;;;;;;8468783;27;19926;-92
2021/08/11 00:13:23;;;;;;;;;;;16.00;99.90;;;;;;8468819;27;19928;-94
2021/08/11 00:17:25;;;;;;;;;;;15.90;99.90;;;;;;8468834;27;19979;-93
2021/08/11 00:21:25;;;;;;;;;;;15.80;99.90;;;;;;8468544;27;19916;-93
2021/08/11 00:25:26;;;;;;;;;;;16.00;99.90;;;;;;8468536;27;19900;-91
2021/08/11 00:29:26;;;;;;;;;;;16.10;99.90;;;;;;8468442;27;19960;-92
2021/08/11 00:33:27;;;;;;;;;;;16.20;99.90;;;;;;8468537;27;19900;-92
2021/08/11 00:37:27;;;;;;;;;;;15.90;99.90;;;;;;8468302;27;19900;-94
2021/08/11 00:41:28;;;;;;;;;;;15.70;99.90;;;;;;8468200;27;19908;-92
2021/08/11 00:45:28;;;;;;;;;;;15.70;99.90;;;;;;8468491;27;19911;-90
2021/08/11 00:49:29;;;;;;;;;;;15.50;99.90;;;;;;8468634;27;19926;-93
2021/08/11 00:53:30;;;;;;;;;;;15.30;99.90;;;;;;8475112;27;19925;-91
2021/08/11 00:57:31;;;;;;;;;;;15.30;99.90;;;;;;8474622;27;20417;-92
2021/08/11 01:01:32;;;;;;;;;;;15.30;99.90;;;;;;8474823;27;19908;-92
2021/08/11 01:05:33;;;;;;;;;;;15.20;99.90;;;;;;8474737;27;19905;-92
2021/08/11 01:09:33;;;;;;;;;;;15.30;99.90;;;;;;8474455;27;19912;-93
2021/08/11 01:13:34;;;;;;;;;;;15.30;99.90;;;;;;8474437;27;19947;-91
2021/08/11 01:17:34;;;;;;;;;;;15.50;99.90;;;;;;8474341;27;19900;-91
2021/08/11 01:21:41;;;;;;;;;;;15.60;99.90;;;;;;8473939;27;19924;-92
2021/08/11 01:25:47;;;;;;;;;;;15.60;99.90;;;;;;8474081;27;19907;-91
2021/08/11 01:29:47;;;;;;;;;;;15.50;99.90;;;;;;8473994;27;19908;-91
2021/08/11 01:34:03;;;;;;;;;;;15.00;99.90;;;;;;8474500;27;19922;-91
2021/08/11 01:38:05;;;;;;;;;;;14.80;99.90;;;;;;8474386;27;19931;-92
2021/08/11 01:42:12;;;;;;;;;;;15.00;99.90;;;;;;8474852;27;19912;-91
2021/08/11 01:46:14;;;;;;;;;;;14.90;99.90;;;;;;8473460;27;20134;-92
2021/08/11 01:50:16;;;;;;;;;;;14.70;99.90;;;;;;8472820;27;19908;-91
2021/08/11 01:54:17;;;;;;;;;;;15.00;99.90;;;;;;8473342;27;19907;-93
2021/08/11 01:58:21;;;;;;;;;;;14.80;99.90;;;;;;8472661;27;19904;-91
2021/08/11 02:02:23;;;;;;;;;;;14.70;99.90;;;;;;8471845;27;19909;-92
2021/08/11 02:06:26;;;;;;;;;;;14.70;99.90;;;;;;8472517;27;19901;-92
2021/08/11 02:10:27;;;;;;;;;;;14.70;99.90;;;;;;8472397;27;19916;-92
2021/08/11 02:14:28;;;;;;;;;;;14.90;99.90;;;;;;8472981;27;19900;-92
2021/08/11 02:18:29;;;;;;;;;;;14.70;99.90;;;;;;8472485;27;19900;-91
2021/08/11 02:22:29;;;;;;;;;;;14.50;99.90;;;;;;8472437;27;19975;-93
2021/08/11 02:26:31;;;;;;;;;;;14.60;99.90;;;;;;8471931;27;19916;-93
2021/08/11 02:30:52;;;;;;;;;;;14.60;99.90;;;;;;8471645;27;19908;-91
2021/08/11 02:34:53;;;;;;;;;;;14.40;99.90;;;;;;8471430;27;19935;-92
2021/08/11 02:38:56;;;;;;;;;;;14.50;99.90;;;;;;8470770;27;19980;-93
2021/08/11 02:43:05;;;;;;;;;;;14.70;99.90;;;;;;8471052;27;19979;-93
2021/08/11 02:47:06;;;;;;;;;;;14.30;99.90;;;;;;8471394;27;19900;-95
2021/08/11 02:51:08;;;;;;;;;;;14.10;99.90;;;;;;8471099;27;19967;-93
2021/08/11 02:55:08;;;;;;;;;;;14.50;99.90;;;;;;8471187;27;19900;-93
2021/08/11 02:59:10;;;;;;;;;;;14.50;99.90;;;;;;8470802;27;19908;-95
2021/08/11 03:03:10;;;;;;;;;;;14.20;99.90;;;;;;8471059;27;19915;-94
2021/08/11 03:07:11;;;;;;;;;;;14.30;99.90;;;;;;8470670;27;19908;-94
2021/08/11 03:11:12;;;;;;;;;;;14.30;99.90;;;;;;8470516;27;19900;-95
2021/08/11 03:15:13;;;;;;;;;;;14.20;99.90;;;;;;8470442;27;19972;-96
2021/08/11 03:19:14;;;;;;;;;;;13.90;99.90;;;;;;8470230;27;19921;-96
2021/08/11 03:23:15;;;;;;;;;;;14.10;99.90;;;;;;8470003;27;19986;-96
2021/08/11 03:27:15;;;;;;;;;;;14.30;99.90;;;;;;8469959;27;19963;-95
2021/08/11 03:31:16;;;;;;;;;;;14.30;99.90;;;;;;8469716;27;19925;-95
2021/08/11 03:35:16;;;;;;;;;;;14.10;99.90;;;;;;8469693;27;19900;-95
2021/08/11 03:39:17;;;;;;;;;;;14.00;99.90;;;;;;8469726;27;19900;-96
2021/08/11 03:43:17;;;;;;;;;;;14.20;99.90;;;;;;8469339;27;19919;-95
2021/08/11 03:47:18;;;;;;;;;;;14.20;99.90;;;;;;8469426;27;19972;-95
2021/08/11 03:51:18;;;;;;;;;;;13.90;99.90;;;;;;8469175;27;19906;-94
2021/08/11 03:55:19;;;;;;;;;;;13.90;99.90;;;;;;8468675;27;19927;-95
2021/08/11 03:59:19;;;;;;;;;;;13.80;99.90;;;;;;8468952;28;19965;-96
2021/08/11 04:03:20;;;;;;;;;;;13.60;99.90;;;;;;8435185;28;19954;-96
2021/08/11 04:07:20;;;;;;;;;;;13.40;99.90;;;;;;8435632;28;19900;-95
2021/08/11 04:11:21;;;;;;;;;;;13.50;99.90;;;;;;8435004;28;19911;-96
2021/08/11 04:15:21;;;;;;;;;;;13.50;99.90;;;;;;8434945;28;19907;-95
2021/08/11 04:19:22;;;;;;;;;;;13.60;99.90;;;;;;8434899;28;19904;-94
2021/08/11 04:23:22;;;;;;;;;;;13.90;99.90;;;;;;8464062;27;20163;-95
2021/08/11 04:27:23;;;;;;;;;;;13.80;99.90;;;;;;8467237;27;19927;-95
2021/08/11 04:31:23;;;;;;;;;;;13.70;99.90;;;;;;8466873;27;19900;-96
2021/08/11 04:35:23;;;;;;;;;;;13.60;99.90;;;;;;8468322;27;19908;-95
2021/08/11 04:39:24;;;;;;;;;;;13.70;99.90;;;;;;8468441;27;19916;-95
2021/08/11 04:43:25;;;;;;;;;;;13.80;99.90;;;;;;8467300;27;19919;-95
2021/08/11 04:47:26;;;;;;;;;;;13.90;99.90;;;;;;8467582;27;19900;-96
2021/08/11 04:51:26;;;;;;;;;;;14.10;99.90;;;;;;8467385;27;19934;-96
2021/08/11 04:55:27;;;;;;;;;;;14.20;99.90;;;;;;8468329;27;19912;-95
2021/08/11 04:59:27;;;;;;;;;;;14.40;99.90;;;;;;8467579;27;19908;-96
2021/08/11 05:03:28;;;;;;;;;;;14.50;99.90;;;;;;8466610;27;19916;-96
2021/08/11 05:07:28;;;;;;;;;;;14.70;99.90;;;;;;8466835;27;19942;-96
2021/08/11 05:11:29;;;;;;;;;;;14.90;99.90;;;;;;8450018;28;19900;-96
2021/08/11 05:15:29;;;;;;;;;;;15.10;99.90;;;;;;8444795;28;19904;-95
2021/08/11 05:19:31;;;;;;;;;;;15.40;99.90;;;;;;8446852;28;19906;-95
2021/08/11 05:23:31;;;;;;;;;;;15.70;99.90;;;;;;8453552;28;19942;-95
2021/08/11 05:27:32;;;;;;;;;;;15.90;99.90;;;;;;8452444;28;19925;-96
2021/08/11 05:31:33;;;;;;;;;;;16.10;99.90;;;;;;8452511;28;19916;-95
2021/08/11 05:35:33;;;;;;;;;;;16.40;99.90;;;;;;8444064;28;19924;-95
2021/08/11 05:39:34;;;;;;;;;;;16.60;99.90;;;;;;8468674;28;19919;-96
2021/08/11 05:43:34;;;;;;;;;;;16.90;99.90;;;;;;8457301;28;19919;-96
2021/08/11 05:47:35;;;;;;;;;;;17.20;99.90;;;;;;8460871;28;19968;-96
2021/08/11 05:51:36;;;;;;;;;;;17.30;99.90;;;;;;8460221;28;19911;-96
2021/08/11 05:55:37;;;;;;;;;;;17.50;99.90;;;;;;8473257;28;19897;-96
2021/08/11 05:59:37;;;;;;;;;;;17.70;99.90;;;;;;8472448;28;19916;-96
2021/08/11 06:03:38;;;;;;;;;;;17.90;99.90;;;;;;8472128;28;19943;-96
2021/08/11 06:07:39;;;;;;;;;;;18.20;99.90;;;;;;8459030;28;19923;-93
2021/08/11 06:11:42;;;;;;;;;;;18.50;99.90;;;;;;8463937;28;19917;-93
2021/08/11 06:15:43;;;;;;;;;;;18.70;99.90;;;;;;8465101;28;19926;-93
2021/08/11 06:19:45;;;;;;;;;;;19.30;99.90;;;;;;8461527;28;19904;-93
2021/08/11 06:23:45;;;;;;;;;;;19.50;99.90;;;;;;8462515;28;19983;-94
2021/08/11 06:27:46;;;;;;;;;;;19.80;99.90;;;;;;8468790;28;19907;-92
2021/08/11 06:31:46;;;;;;;;;;;20.10;99.90;;;;;;8470051;28;19923;-93
2021/08/11 06:35:47;;;;;;;;;;;20.20;99.90;;;;;;8470076;28;20062;-94
2021/08/11 06:39:47;;;;;;;;;;;20.30;99.90;;;;;;8471069;27;19904;-95
2021/08/11 06:43:50;;;;;;;;;;;20.50;99.90;;;;;;8465206;28;19912;-95
2021/08/11 06:47:51;;;;;;;;;;;20.60;99.90;;;;;;8468379;27;19939;-95
2021/08/11 06:51:51;;;;;;;;;;;20.60;99.90;;;;;;8469966;28;19998;-95
2021/08/11 06:55:52;;;;;;;;;;;20.60;99.90;;;;;;8451855;28;19932;-93
2021/08/11 06:59:52;;;;;;;;;;;20.80;99.90;;;;;;8437767;28;19908;-96
2021/08/11 07:03:53;;;;;;;;;;;21.00;99.90;;;;;;8451034;28;19912;-95
2021/08/11 07:07:53;;;;;;;;;;;21.00;99.90;;;;;;8465679;28;19900;-95
2021/08/11 07:11:54;;;;;;;;;;;21.10;99.90;;;;;;8468683;28;19959;-94
2021/08/11 07:15:54;;;;;;;;;;;21.40;99.90;;;;;;8469259;28;19910;-94
2021/08/11 07:19:55;;;;;;;;;;;21.50;99.90;;;;;;8468317;28;19904;-95
2021/08/11 07:23:55;;;;;;;;;;;21.70;99.90;;;;;;8468148;28;19947;-94
2021/08/11 07:27:56;;;;;;;;;;;21.90;99.90;;;;;;8468530;28;19907;-95
2021/08/11 07:31:57;;;;;;;;;;;22.00;99.90;;;;;;8467759;28;19915;-94
2021/08/11 07:35:57;;;;;;;;;;;22.30;99.90;;;;;;8448496;28;19905;-93
2021/08/11 07:39:59;;;;;;;;;;;22.30;99.90;;;;;;8458204;28;19912;-94
2021/08/11 07:44:00;;;;;;;;;;;22.20;99.90;;;;;;8466158;28;19932;-94
2021/08/11 07:48:01;;;;;;;;;;;22.20;99.90;;;;;;8465182;28;19922;-93
2021/08/11 07:52:01;;;;;;;;;;;22.40;99.90;;;;;;8466575;28;19900;-93
2021/08/11 07:56:02;;;;;;;;;;;22.60;99.90;;;;;;8466943;28;19900;-93
2021/08/11 08:00:03;;;;;;;;;;;22.80;99.90;;;;;;8467442;28;19964;-94
2021/08/11 08:04:04;;;;;;;;;;;23.00;99.90;;;;;;8468215;28;19946;-93
2021/08/11 08:08:04;;;;;;;;;;;23.10;99.90;;;;;;8468869;28;19971;-93
2021/08/11 08:12:05;;;;;;;;;;;23.00;99.90;;;;;;8468762;28;19900;-93
2021/08/11 08:16:06;;;;;;;;;;;23.20;99.90;;;;;;8468710;28;19916;-93
2021/08/11 08:20:07;;;;;;;;;;;23.30;99.90;;;;;;8468681;28;19964;-94
2021/08/11 08:24:08;;;;;;;;;;;23.40;99.90;;;;;;8468535;28;19979;-93
2021/08/11 08:28:08;;;;;;;;;;;23.70;99.90;;;;;;8468391;28;19896;-94
2021/08/11 08:32:11;;;;;;;;;;;23.90;99.90;;;;;;8468473;28;19923;-93
2021/08/11 08:36:11;;;;;;;;;;;24.00;99.90;;;;;;8468446;28;19896;-93
2021/08/11 08:40:13;;;;;;;;;;;24.00;99.90;;;;;;8468436;28;19910;-95
2021/08/11 08:44:14;;;;;;;;;;;24.20;99.90;;;;;;8468631;28;19904;-94
2021/08/11 08:48:15;;;;;;;;;;;24.60;99.90;;;;;;8468526;28;19936;-94
2021/08/11 08:52:19;;;;;;;;;;;24.70;99.90;;;;;;8468587;28;19975;-93
2021/08/11 08:56:20;;;;;;;;;;;24.70;99.90;;;;;;8467501;28;19904;-94
2021/08/11 09:00:20;;;;;;;;;;;24.80;99.90;;;;;;8468062;28;19901;-93
2021/08/11 09:04:21;;;;;;;;;;;24.90;99.90;;;;;;8468193;28;19916;-95
2021/08/11 09:08:21;;;;;;;;;;;24.90;99.90;;;;;;8467721;28;19900;-95
2021/08/11 09:12:23;;;;;;;;;;;25.20;99.90;;;;;;8473263;22;19924;-65
2021/08/11 09:16:23;;;;;;;;;;;25.40;99.90;;;;;;8430988;28;19934;-65
2021/08/11 09:20:25;;;;;;;;;;;25.30;99.90;;;;;;8430607;28;20370;-65
2021/08/11 09:24:25;;;;;;;;;;;25.30;99.90;;;;;;8430632;28;19958;-64
2021/08/11 09:28:27;;;;;;;;;;;25.50;99.90;;;;;;8430437;28;19908;-65
2021/08/11 09:32:28;;;;;;;;;;;25.50;99.90;;;;;;8430434;28;19908;-65
2021/08/11 09:36:48;;;;;;;;;;;25.40;99.90;;;;;;8429167;28;20328;-65
2021/08/11 09:40:49;;;;;;;;;;;25.40;99.90;;;;;;8429834;28;19908;-64
2021/08/11 09:44:59;;;;;;;;;;;25.20;99.90;;;;;;8430214;28;19919;-65
2021/08/11 09:48:59;;;;;;;;;;;25.70;99.90;;;;;;8429705;28;19972;-65
2021/08/11 09:53:00;;;;;;;;;;;26.00;99.90;;;;;;8429724;28;19923;-65
2021/08/11 09:57:00;;;;;;;;;;;26.20;99.90;;;;;;8429155;28;19973;-65
2021/08/11 10:01:01;;;;;;;;;;;26.40;99.90;;;;;;8428792;28;19908;-65
2021/08/11 10:05:01;;;;;;;;;;;26.70;99.90;;;;;;8429663;28;20285;-65
2021/08/11 10:09:23;;;;;;;;;;;26.60;99.90;;;;;;8429025;28;19919;-65
2021/08/11 10:13:24;;;;;;;;;;;26.40;99.90;;;;;;8427953;28;19977;-65
2021/08/11 10:17:28;;;;;;;;;;;26.50;99.90;;;;;;8427654;28;19908;-65
2021/08/11 10:21:28;;;;;;;;;;;26.70;99.90;;;;;;8428549;28;20374;-65
2021/08/11 10:25:29;;;;;;;;;;;27.00;99.90;;;;;;8427444;28;19916;-65
2021/08/11 10:29:29;;;;;;;;;;;26.90;99.90;;;;;;8427908;28;19973;-66
2021/08/11 10:33:30;;;;;;;;;;;27.00;99.90;;;;;;8420138;28;20393;-66
2021/08/11 10:37:32;;;;;;;;;;;27.50;99.90;;;;;;8422204;28;19916;-66
2021/08/11 10:41:34;;;;;;;;;;;27.80;99.90;;;;;;8424464;28;19926;-66
2021/08/11 10:45:35;;;;;;;;;;;27.40;99.90;;;;;;8426795;28;19912;-66
2021/08/11 10:49:50;;;;;;;;;;;27.30;99.90;;;;;;8426285;28;19939;-65
2021/08/11 10:54:04;;;;;;;;;;;27.00;99.90;;;;;;8423697;28;19965;-66
2021/08/11 10:58:04;;;;;;;;;;;26.70;99.90;;;;;;8410511;28;19912;-65
2021/08/11 11:02:25;;;;;;;;;;;26.80;99.90;;;;;;8417164;28;19967;-66
2021/08/11 11:06:45;;;;;;;;;;;27.20;99.90;;;;;;8423830;28;19912;-66
2021/08/11 11:10:46;;;;;;;;;;;27.50;99.90;;;;;;8414167;28;19916;-66
2021/08/11 11:14:47;;;;;;;;;;;27.60;98.50;;;;;;8425272;28;19971;-66
2021/08/11 11:19:06;;;;;;;;;;;29.00;99.90;;;;;;8425476;28;19969;-66
2021/08/11 11:23:07;;;;;;;;;;;31.10;96.60;;;;;;8419970;28;20063;-66
2021/08/11 11:27:26;;;;;;;;;;;32.40;86.40;;;;;;8420957;28;20353;-66
2021/08/11 11:31:27;;;;;;;;;;;34.70;76.10;;;;;;8404527;28;19913;-65
2021/08/11 11:35:28;;;;;;;;;;;36.30;62.40;;;;;;8398117;28;20320;-65
2021/08/11 11:39:41;;;;;;;;;;;35.00;65.00;;;;;;8421132;28;19915;-65
2021/08/11 11:43:41;;;;;;;;;;;35.10;65.10;;;;;;8422840;28;20365;-65
2021/08/11 11:47:46;;;;;;;;;;;33.70;66.50;;;;;;8422594;28;19916;-65
2021/08/11 11:51:46;;;;;;;;;;;31.80;74.70;;;;;;8411489;28;19920;-66
2021/08/11 11:55:47;;;;;;;;;;;34.90;65.90;;;;;;8422624;28;20362;-65
2021/08/11 11:59:48;;;;;;;;;;;36.70;58.00;;;;;;8426141;28;19919;-65
2021/08/11 12:03:52;;;;;;;;;;;37.40;55.20;;;;;;8395104;28;19921;-65
2021/08/11 12:07:54;;;;;;;;;;;37.10;53.20;;;;;;8389996;28;22536;-65
2021/08/11 12:11:55;;;;;;;;;;;38.20;51.70;;;;;;8392256;28;19935;-66
2021/08/11 12:15:56;;;;;;;;;;;39.20;47.00;;;;;;8392095;28;19912;-66
2021/08/11 12:19:57;;;;;;;;;;;39.30;47.20;;;;;;8391710;28;19915;-65
2021/08/11 12:23:57;;;;;;;;;;;38.50;48.40;;;;;;8423774;28;20007;-66
2021/08/11 12:28:13;;;;;;;;;;;37.00;49.80;;;;;;8423943;28;19920;-66
2021/08/11 12:32:13;;;;;;;;;;;36.30;52.00;;;;;;8425208;28;19909;-66
2021/08/11 12:36:19;;;;;;;;;;;38.40;50.30;;;;;;8424885;28;19947;-66
2021/08/11 12:40:30;;;;;;;;;;;39.70;47.50;;;;;;8423309;28;20335;-66
2021/08/11 12:44:31;;;;;;;;;;;40.20;45.80;;;;;;8424690;28;19995;-65
2021/08/11 12:48:33;;;;;;;;;;;40.30;44.80;;;;;;8429023;28;19981;-66
2021/08/11 12:52:33;;;;;;;;;;;40.90;42.10;;;;;;8430333;28;19916;-66
2021/08/11 12:56:52;;;;;;;;;;;42.00;42.30;;;;;;8431137;28;19912;-66
2021/08/11 13:00:54;;;;;;;;;;;40.40;42.80;;;;;;8430481;28;19908;-65
2021/08/11 13:05:17;;;;;;;;;;;38.00;47.70;;;;;;8430211;28;19962;-66
2021/08/11 13:09:18;;;;;;;;;;;38.20;47.70;;;;;;8430608;28;20034;-65
2021/08/11 13:13:22;;;;;;;;;;;40.70;45.20;;;;;;8430597;28;19920;-66
2021/08/11 13:17:24;;;;;;;;;;;42.50;40.70;;;;;;8428868;28;20517;-66
2021/08/11 13:21:37;;;;;;;;;;;44.60;37.70;;;;;;8430031;28;19976;-66
2021/08/11 13:25:37;;;;;;;;;;;44.50;37.50;;;;;;8430602;28;19908;-66
2021/08/11 13:29:38;;;;;;;;;;;43.30;37.00;;;;;;8428828;28;19943;-66
2021/08/11 13:33:38;;;;;;;;;;;43.50;37.70;;;;;;8430291;28;19912;-65
2021/08/11 13:37:39;;;;;;;;;;;41.70;38.60;;;;;;8428089;28;19920;-65
2021/08/11 13:41:40;;;;;;;;;;;36.70;45.70;;;;;;8429425;28;19927;-65
2021/08/11 13:45:41;;;;;;;;;;;34.50;49.60;;;;;;8430200;28;19908;-66
2021/08/11 13:49:42;;;;;;;;;;;34.60;51.50;;;;;;8429442;28;19943;-66
2021/08/11 13:53:42;;;;;;;;;;;39.70;44.40;;;;;;8428022;28;20324;-66
2021/08/11 13:57:43;;;;;;;;;;;41.00;41.70;;;;;;8426971;28;19962;-65
2021/08/11 14:01:44;;;;;;;;;;;37.80;44.90;;;;;;8428723;28;19920;-66
2021/08/11 14:05:44;;;;;;;;;;;39.30;44.90;;;;;;8429669;28;20022;-66
2021/08/11 14:09:45;;;;;;;;;;;41.50;40.30;;;;;;8429062;28;19916;-66
2021/08/11 14:13:45;;;;;;;;;;;41.30;39.00;;;;;;8427508;28;19916;-65
2021/08/11 14:17:46;;;;;;;;;;;40.40;39.50;;;;;;8423802;28;20263;-66
2021/08/11 14:21:48;;;;;;;;;;;40.10;41.70;;;;;;8411195;28;20369;-66
2021/08/11 14:25:49;;;;;;;;;;;41.80;40.90;;;;;;8415757;28;20366;-66
2021/08/11 14:29:49;;;;;;;;;;;43.10;37.40;;;;;;8419292;28;19918;-66
2021/08/11 14:33:52;;;;;;;;;;;43.10;35.80;;;;;;8410985;28;20317;-66
2021/08/11 14:37:53;;;;;;;;;;;44.10;36.30;;;;;;8425942;28;20012;-66
2021/08/11 14:41:53;;;;;;;;;;;44.40;35.20;;;;;;8424821;28;21150;-66
2021/08/11 14:45:54;;;;;;;;;;;45.00;34.80;;;;;;8408614;28;19916;-66
2021/08/11 14:49:55;;;;;;;;;;;43.20;35.90;;;;;;8408296;28;19923;-66
2021/08/11 14:53:55;;;;;;;;;;;41.50;36.80;;;;;;8402419;28;19924;-66
2021/08/11 14:57:56;;;;;;;;;;;40.00;38.50;;;;;;8405209;28;19912;-66
2021/08/11 15:01:56;;;;;;;;;;;41.00;40.30;;;;;;8424913;28;19964;-66
2021/08/11 15:05:57;;;;;;;;;;;40.80;37.00;;;;;;8425821;28;19918;-67
2021/08/11 15:09:57;;;;;;;;;;;38.30;41.60;;;;;;8423523;28;19916;-66
2021/08/11 15:13:58;;;;;;;;;;;38.30;42.90;;;;;;8423581;28;19916;-66
2021/08/11 15:17:59;;;;;;;;;;;39.50;41.70;;;;;;8417404;28;20362;-66
2021/08/11 15:21:59;;;;;;;;;;;37.90;44.20;;;;;;8412021;28;20014;-66
2021/08/11 15:26:00;;;;;;;;;;;37.00;43.10;;;;;;8416964;28;20332;-66
2021/08/11 15:30:00;;;;;;;;;;;36.90;44.00;;;;;;8399349;28;19928;-66
2021/08/11 15:34:01;;;;;;;;;;;37.90;43.10;;;;;;8409144;28;19908;-66
2021/08/11 15:38:01;;;;;;;;;;;39.30;40.80;;;;;;8410427;28;19912;-66
2021/08/11 15:42:03;;;;;;;;;;;40.50;38.60;;;;;;8408497;28;19912;-66
2021/08/11 15:46:04;;;;;;;;;;;39.30;40.00;;;;;;8421993;28;19973;-66
2021/08/11 15:50:06;;;;;;;;;;;38.80;41.80;;;;;;8424862;28;19912;-66
2021/08/11 15:54:06;;;;;;;;;;;40.20;40.00;;;;;;8424525;28;19912;-66
2021/08/11 15:58:07;;;;;;;;;;;40.30;41.00;;;;;;8424859;28;20290;-66
2021/08/11 16:02:07;;;;;;;;;;;41.50;41.40;;;;;;8424918;28;19912;-66
2021/08/11 16:06:08;;;;;;;;;;;39.80;42.20;;;;;;8424458;28;20425;-66
2021/08/11 16:10:10;;;;;;;;;;;36.50;44.90;;;;;;8423876;28;20445;-66
2021/08/11 16:14:10;;;;;;;;;;;36.00;48.20;;;;;;8424559;28;19920;-66
2021/08/11 16:18:11;;;;;;;;;;;35.60;47.00;;;;;;8423816;28;19973;-66
2021/08/11 16:22:11;;;;;;;;;;;34.50;49.60;;;;;;8413990;28;20378;-66
2021/08/11 16:26:14;;;;;;;;;;;35.10;50.00;;;;;;8410577;28;19920;-66
2021/08/11 16:30:16;;;;;;;;;;;38.00;45.10;;;;;;8413909;28;19909;-66
2021/08/11 16:34:17;;;;;;;;;;;39.10;44.50;;;;;;8401324;28;19920;-66
2021/08/11 16:38:17;;;;;;;;;;;37.80;44.50;;;;;;8399526;28;19919;-66
2021/08/11 16:42:17;;;;;;;;;;;36.60;46.90;;;;;;8387765;28;19981;-66
2021/08/11 16:46:18;;;;;;;;;;;35.60;49.20;;;;;;8388808;28;20317;-66
2021/08/11 16:50:19;;;;;;;;;;;35.40;49.30;;;;;;8390627;28;19909;-66
2021/08/11 16:54:19;;;;;;;;;;;34.60;50.90;;;;;;8411828;28;19920;-65
2021/08/11 16:58:20;;;;;;;;;;;33.10;54.90;;;;;;8400867;28;19995;-66
2021/08/11 17:02:20;;;;;;;;;;;32.30;56.30;;;;;;8402092;28;19920;-66
2021/08/11 17:06:21;;;;;;;;;;;32.20;59.30;;;;;;8405510;28;20383;-66
2021/08/11 17:10:23;;;;;;;;;;;32.30;57.00;;;;;;8401623;28;19912;-66
2021/08/11 17:14:23;;;;;;;;;;;32.90;57.60;;;;;;8407406;28;19927;-66
2021/08/11 17:18:24;;;;;;;;;;;34.60;54.00;;;;;;8403795;28;19913;-66
2021/08/11 17:22:25;;;;;;;;;;;34.10;54.50;;;;;;8413161;28;19926;-65
2021/08/11 17:26:25;;;;;;;;;;;32.30;56.10;;;;;;8417174;28;19919;-66
2021/08/11 17:30:26;;;;;;;;;;;30.50;62.60;;;;;;8418768;28;19920;-66
2021/08/11 17:34:26;;;;;;;;;;;29.90;64.10;;;;;;8426010;28;19912;-66
2021/08/11 17:38:27;;;;;;;;;;;29.60;68.70;;;;;;8412458;28;20013;-65
2021/08/11 17:42:27;;;;;;;;;;;29.20;67.70;;;;;;8425491;28;19952;-66
2021/08/11 17:46:28;;;;;;;;;;;28.30;70.70;;;;;;8430078;28;19920;-65
2021/08/11 17:50:32;;;;;;;;;;;27.80;74.10;;;;;;8422904;28;19916;-66
2021/08/11 17:54:32;;;;;;;;;;;27.60;74.70;;;;;;8425518;28;20015;-65
2021/08/11 17:58:33;;;;;;;;;;;27.20;76.10;;;;;;8426821;28;20428;-65
2021/08/11 18:02:33;;;;;;;;;;;26.80;79.10;;;;;;8424556;28;19916;-65
2021/08/11 18:06:35;;;;;;;;;;;26.60;82.40;;;;;;8420453;28;19912;-65
2021/08/11 18:10:35;;;;;;;;;;;26.40;85.10;;;;;;8429107;28;20441;-65
2021/08/11 18:14:36;;;;;;;;;;;26.10;85.30;;;;;;8409316;28;19924;-64
2021/08/11 18:18:37;;;;;;;;;;;26.00;87.80;;;;;;8391849;28;20382;-64
2021/08/11 18:22:38;;;;;;;;;;;25.80;87.60;;;;;;8415439;28;19912;-64
2021/08/11 18:26:38;;;;;;;;;;;25.40;91.50;;;;;;8426226;28;19943;-65
2021/08/11 18:30:39;;;;;;;;;;;25.10;92.20;;;;;;8425608;28;19916;-65
2021/08/11 18:34:39;;;;;;;;;;;24.50;96.50;;;;;;8427937;28;19932;-65
2021/08/11 18:38:39;;;;;;;;;;;24.00;99.80;;;;;;8410422;28;19919;-64
2021/08/11 18:42:40;;;;;;;;;;;23.80;99.90;;;;;;8409656;28;19917;-64
2021/08/11 18:46:40;;;;;;;;;;;23.60;99.90;;;;;;8409938;28;19919;-64
2021/08/11 18:50:41;;;;;;;;;;;23.40;99.90;;;;;;8411077;28;19909;-64
2021/08/11 18:54:42;;;;;;;;;;;23.30;99.90;;;;;;8425692;28;20420;-64
2021/08/11 18:58:42;;;;;;;;;;;23.00;99.90;;;;;;8427464;28;19908;-65
2021/08/11 19:02:43;;;;;;;;;;;22.80;99.90;;;;;;8420536;28;19970;-64
2021/08/11 19:06:43;;;;;;;;;;;22.90;99.90;;;;;;8393281;28;19913;-65
2021/08/11 19:10:44;;;;;;;;;;;23.00;99.90;;;;;;8400675;28;20298;-64
2021/08/11 19:14:44;;;;;;;;;;;22.90;99.90;;;;;;8393471;28;20012;-65
2021/08/11 19:18:45;;;;;;;;;;;22.70;99.90;;;;;;8418761;28;19912;-65
2021/08/11 19:22:45;;;;;;;;;;;22.50;99.90;;;;;;8394701;28;19916;-65
2021/08/11 19:26:46;;;;;;;;;;;22.50;99.90;;;;;;8401612;28;19919;-65
2021/08/11 19:30:47;;;;;;;;;;;22.30;99.90;;;;;;8408549;28;20485;-65
2021/08/11 19:34:47;;;;;;;;;;;21.90;99.90;;;;;;8408772;28;19915;-65
2021/08/11 19:38:48;;;;;;;;;;;21.80;99.90;;;;;;8408408;28;20421;-65
2021/08/11 19:42:50;;;;;;;;;;;21.60;99.90;;;;;;8408798;28;19912;-65
2021/08/11 19:46:51;;;;;;;;;;;21.70;99.90;;;;;;8406573;28;19947;-65
2021/08/11 19:50:51;;;;;;;;;;;21.50;99.90;;;;;;8410179;28;20324;-65
2021/08/11 19:54:52;;;;;;;;;;;21.70;99.90;;;;;;8407919;28;20379;-64
2021/08/11 19:58:53;;;;;;;;;;;21.70;99.90;;;;;;8408462;28;19916;-64
2021/08/11 20:02:54;;;;;;;;;;;21.50;99.90;;;;;;8407121;28;19912;-65
2021/08/11 20:06:56;;;;;;;;;;;21.00;99.90;;;;;;8407100;28;19915;-65
2021/08/11 20:10:56;;;;;;;;;;;20.90;99.90;;;;;;8408367;28;19912;-64
2021/08/11 20:14:57;;;;;;;;;;;21.10;99.90;;;;;;8408270;28;19962;-64
2021/08/11 20:18:58;;;;;;;;;;;20.90;99.90;;;;;;8408611;28;19908;-64
2021/08/11 20:22:59;;;;;;;;;;;20.60;99.90;;;;;;8408028;28;19912;-65
2021/08/11 20:26:59;;;;;;;;;;;20.20;99.90;;;;;;8407709;28;19941;-64
2021/08/11 20:31:00;;;;;;;;;;;20.20;99.90;;;;;;8404902;28;19912;-65
2021/08/11 20:35:00;;;;;;;;;;;20.20;99.90;;;;;;8408415;28;19908;-65
2021/08/11 20:39:01;;;;;;;;;;;20.10;99.90;;;;;;8406661;28;19913;-65
2021/08/11 20:43:01;;;;;;;;;;;19.80;99.90;;;;;;8415118;28;19938;-65
2021/08/11 20:47:02;;;;;;;;;;;19.80;99.90;;;;;;8400239;28;20362;-65
2021/08/11 20:51:03;;;;;;;;;;;19.70;99.90;;;;;;8410152;28;20003;-65
2021/08/11 20:55:04;;;;;;;;;;;19.40;99.90;;;;;;8399449;28;19909;-65
2021/08/11 20:59:05;;;;;;;;;;;19.30;99.90;;;;;;8402436;28;19919;-65
2021/08/11 21:03:05;;;;;;;;;;;19.30;99.90;;;;;;8406605;28;19912;-64
2021/08/11 21:07:06;;;;;;;;;;;19.10;99.90;;;;;;8407758;28;19908;-66
2021/08/11 21:11:06;;;;;;;;;;;19.20;99.90;;;;;;8413921;28;20441;-67
2021/08/11 21:15:08;;;;;;;;;;;18.80;99.90;;;;;;8414574;28;20344;-67
2021/08/11 21:19:08;;;;;;;;;;;18.80;99.90;;;;;;8413220;28;19916;-67
2021/08/11 21:23:09;;;;;;;;;;;18.80;99.90;;;;;;8414124;28;20556;-67
2021/08/11 21:27:09;;;;;;;;;;;18.80;99.90;;;;;;8427490;28;20396;-67
2021/08/11 21:31:10;;;;;;;;;;;18.60;99.90;;;;;;8428850;28;19916;-67
2021/08/11 21:35:10;;;;;;;;;;;18.60;99.90;;;;;;8427836;28;19908;-67
2021/08/11 21:39:11;;;;;;;;;;;18.40;99.90;;;;;;8428620;28;19979;-67
2021/08/11 21:43:11;;;;;;;;;;;18.20;99.90;;;;;;8425189;28;19916;-67
2021/08/11 21:47:12;;;;;;;;;;;18.10;99.90;;;;;;8430191;28;19915;-67
2021/08/11 21:51:12;;;;;;;;;;;17.90;99.90;;;;;;8429555;28;19953;-67
2021/08/11 21:55:13;;;;;;;;;;;18.20;99.90;;;;;;8429790;28;20366;-67
2021/08/11 21:59:13;;;;;;;;;;;18.20;99.90;;;;;;8423147;28;20002;-67
2021/08/11 22:03:14;;;;;;;;;;;18.10;99.90;;;;;;8427284;28;20014;-67
2021/08/11 22:07:14;;;;;;;;;;;17.90;99.90;;;;;;8429663;28;19908;-67
2021/08/11 22:11:15;;;;;;;;;;;17.90;99.90;;;;;;8429408;28;19962;-67
2021/08/11 22:15:16;;;;;;;;;;;17.90;99.90;;;;;;8429168;28;19916;-67
2021/08/11 22:19:16;;;;;;;;;;;17.70;99.90;;;;;;8427971;28;19908;-67
2021/08/11 22:23:16;;;;;;;;;;;17.80;99.90;;;;;;8428727;28;20021;-67
2021/08/11 22:27:17;;;;;;;;;;;17.60;99.90;;;;;;8428734;28;19912;-67
2021/08/11 22:31:17;;;;;;;;;;;17.50;99.90;;;;;;8428768;28;19919;-67
2021/08/11 22:35:18;;;;;;;;;;;17.60;99.90;;;;;;8427635;28;19912;-67
2021/08/11 22:39:18;;;;;;;;;;;17.60;99.90;;;;;;8427296;28;19999;-67
2021/08/11 22:43:19;;;;;;;;;;;17.60;99.90;;;;;;8428592;28;19958;-67
2021/08/11 22:47:20;;;;;;;;;;;17.40;99.90;;;;;;8428367;28;19927;-67
2021/08/11 22:51:20;;;;;;;;;;;17.20;99.90;;;;;;8426382;28;19908;-67
2021/08/11 22:55:21;;;;;;;;;;;17.20;99.90;;;;;;8428445;28;19908;-67
2021/08/11 22:59:21;;;;;;;;;;;17.00;99.90;;;;;;8427401;28;20431;-67
2021/08/11 23:03:22;;;;;;;;;;;17.10;99.90;;;;;;8427960;28;19915;-67
2021/08/11 23:07:22;;;;;;;;;;;17.10;99.90;;;;;;8427883;28;19951;-67
2021/08/11 23:11:23;;;;;;;;;;;16.90;99.90;;;;;;8427545;28;19931;-67
2021/08/11 23:15:24;;;;;;;;;;;16.60;99.90;;;;;;8427768;28;19918;-67
2021/08/11 23:19:24;;;;;;;;;;;16.70;99.90;;;;;;8427244;28;19908;-67
2021/08/11 23:23:25;;;;;;;;;;;16.80;99.90;;;;;;8427344;28;20263;-66